createdAt,value
2022-09-15T00:02:11.468Z,7.20
2022-09-15T00:06:23.075Z,6.85
2022-09-15T00:10:34.730Z,6.50
2022-09-15T00:14:46.198Z,7.28
2022-09-15T00:18:58.636Z,6.68
2022-09-15T00:23:13.188Z,6.70
2022-09-15T00:27:24.687Z,6.15
2022-09-15T00:31:36.210Z,6.70
2022-09-15T00:35:52.597Z,6.35
2022-09-15T00:40:04.712Z,6.82
2022-09-15T00:44:16.220Z,6.90
2022-09-15T00:48:27.734Z,6.53
2022-09-15T00:52:47.753Z,5.97
2022-09-15T00:57:04.761Z,6.22
2022-09-15T01:01:16.889Z,5.10
2022-09-15T01:05:33.018Z,6.25
2022-09-15T01:09:51.901Z,5.45
2022-09-15T01:14:04.141Z,4.70
2022-09-15T01:18:15.535Z,5.18
2022-09-15T01:22:55.333Z,4.78
2022-09-15T01:27:41.448Z,5.07
2022-09-15T01:32:21.614Z,5.30
2022-09-15T01:36:55.604Z,4.75
2022-09-15T01:41:15.522Z,4.68
2022-09-15T01:45:32.165Z,5.30
2022-09-15T01:49:54.581Z,5.30
2022-09-15T01:54:06.772Z,5.63
2022-09-15T01:58:18.261Z,5.43
2022-09-15T02:02:36.092Z,5.88
2022-09-15T02:06:55.501Z,6.10
2022-09-15T02:11:13.742Z,5.43
2022-09-15T02:15:33.345Z,6.15
2022-09-15T02:19:53.417Z,6.18
2022-09-15T02:24:11.948Z,5.13
2022-09-15T02:28:28.667Z,6.13
2022-09-15T02:32:49.723Z,5.07
2022-09-15T02:37:02.183Z,5.03
2022-09-15T02:41:14.210Z,5.85
2022-09-15T02:45:26.866Z,5.45
2022-09-15T02:49:38.475Z,5.05
2022-09-15T02:53:50.078Z,4.93
2022-09-15T02:58:01.880Z,5.05
2022-09-15T03:02:13.987Z,4.68
2022-09-15T03:06:27.936Z,5.07
2022-09-15T03:10:39.689Z,4.80
2022-09-15T03:14:51.217Z,4.70
2022-09-15T03:19:03.890Z,4.30
2022-09-15T03:23:15.405Z,4.20
2022-09-15T03:27:27.445Z,4.68
2022-09-15T03:31:39.027Z,4.38
2022-09-15T03:35:51.944Z,4.28
2022-09-15T03:40:04.289Z,3.90
2022-09-15T03:44:15.870Z,4.25
2022-09-15T03:48:28.505Z,4.00
2022-09-15T03:52:40.041Z,3.85
2022-09-15T03:56:52.054Z,3.83
2022-09-15T04:01:04.002Z,4.05
2022-09-15T04:05:15.889Z,3.20
2022-09-15T04:09:27.690Z,2.97
2022-09-15T04:13:40.727Z,3.67
2022-09-15T04:17:52.305Z,3.10
2022-09-15T04:22:03.923Z,2.88
2022-09-15T04:26:21.754Z,3.35
2022-09-15T04:30:33.292Z,2.90
2022-09-15T04:34:44.870Z,3.10
2022-09-15T04:38:56.734Z,2.60
2022-09-15T04:43:08.352Z,3.10
2022-09-15T04:47:19.917Z,2.92
2022-09-15T04:51:31.543Z,2.40
2022-09-15T04:55:43.095Z,2.50
2022-09-15T04:59:54.657Z,2.45
2022-09-15T05:04:06.190Z,2.17
2022-09-15T05:08:17.736Z,2.60
2022-09-15T05:12:29.344Z,2.40
2022-09-15T05:16:40.960Z,2.60
2022-09-15T05:20:58.472Z,2.50
2022-09-15T05:25:10.413Z,3.63
2022-09-15T05:29:21.994Z,2.28
2022-09-15T05:33:34.405Z,2.30
2022-09-15T05:37:46.004Z,2.00
2022-09-15T05:41:57.634Z,1.90
2022-09-15T05:46:10.356Z,2.08
2022-09-15T05:50:21.969Z,2.10
2022-09-15T05:54:33.589Z,2.42
2022-09-15T05:58:46.762Z,2.28
2022-09-15T06:02:58.383Z,2.03
2022-09-15T06:07:09.970Z,1.88
2022-09-15T06:11:24.307Z,1.77
2022-09-15T06:15:35.889Z,1.88
2022-09-15T06:19:47.467Z,2.17
2022-09-15T06:24:01.269Z,1.58
2022-09-15T06:28:12.828Z,1.40
2022-09-15T06:32:24.474Z,1.90
2022-09-15T06:36:37.695Z,1.50
2022-09-15T06:40:59.330Z,1.60
2022-09-15T06:45:11.010Z,1.38
2022-09-15T06:49:22.586Z,1.52
2022-09-15T06:53:36.113Z,1.85
2022-09-15T06:57:47.685Z,1.15
2022-09-15T07:02:04.106Z,1.30
2022-09-15T07:06:17.113Z,1.50
2022-09-15T07:10:28.768Z,1.02
2022-09-15T07:14:40.301Z,1.20
2022-09-15T07:18:55.067Z,1.65
2022-09-15T07:23:06.567Z,1.13
2022-09-15T07:27:18.172Z,1.55
2022-09-15T07:31:33.507Z,1.33
2022-09-15T07:35:45.473Z,0.98
2022-09-15T07:39:57.037Z,1.30
2022-09-15T07:44:11.561Z,0.82
2022-09-15T07:48:26.367Z,1.00
2022-09-15T07:52:38.451Z,0.93
2022-09-15T07:56:50.048Z,1.02
2022-09-15T08:01:06.957Z,0.93
2022-09-15T08:05:18.542Z,0.93
2022-09-15T08:09:30.211Z,0.80
2022-09-15T08:13:41.739Z,1.08
2022-09-15T08:17:53.479Z,1.17
2022-09-15T08:22:05.623Z,1.13
2022-09-15T08:26:17.324Z,1.00
2022-09-15T08:30:28.982Z,0.93
2022-09-15T08:34:40.531Z,1.05
2022-09-15T08:38:52.250Z,1.10
2022-09-15T08:43:13.098Z,0.77
2022-09-15T08:47:29.569Z,1.00
2022-09-15T08:51:46.388Z,0.75
2022-09-15T08:56:09.354Z,0.68
2022-09-15T09:00:21.482Z,1.13
2022-09-15T09:04:46.293Z,0.80
2022-09-15T09:09:06.901Z,1.17
2022-09-15T09:13:34.686Z,0.70
2022-09-15T09:18:08.315Z,0.75
2022-09-15T09:22:35.749Z,0.60
2022-09-15T09:26:53.218Z,0.82
2022-09-15T09:31:07.884Z,0.88
2022-09-15T09:35:32.111Z,0.70
2022-09-15T09:39:43.696Z,1.00
2022-09-15T09:43:56.378Z,0.75
2022-09-15T09:48:23.536Z,0.55
2022-09-15T09:52:39.391Z,0.93
2022-09-15T09:56:52.690Z,0.57
2022-09-15T10:01:16.851Z,0.60
2022-09-15T10:05:28.577Z,0.93
2022-09-15T10:09:47.509Z,0.88
2022-09-15T10:13:59.142Z,1.00
2022-09-15T10:18:31.869Z,0.80
2022-09-15T10:22:43.836Z,0.82
2022-09-15T10:27:17.180Z,0.77
2022-09-15T10:31:32.156Z,1.25
2022-09-15T10:35:44.441Z,0.80
2022-09-15T10:40:00.257Z,0.70
2022-09-15T10:44:52.438Z,0.88
2022-09-15T10:49:20.553Z,0.70
2022-09-15T10:53:57.162Z,0.43
2022-09-15T10:58:28.744Z,0.57
2022-09-15T11:02:48.150Z,0.40
2022-09-15T11:07:24.381Z,1.00
2022-09-15T11:12:05.826Z,0.70
2022-09-15T11:16:33.389Z,0.70
2022-09-15T11:20:51.036Z,0.70
2022-09-15T11:25:12.867Z,0.70
2022-09-15T11:29:24.361Z,0.82
2022-09-15T11:33:47.643Z,0.75
2022-09-15T11:38:20.886Z,0.90
2022-09-15T11:42:48.929Z,0.70
2022-09-15T11:47:18.720Z,1.00
2022-09-15T11:51:37.752Z,0.63
2022-09-15T11:55:55.230Z,0.88
2022-09-15T12:00:13.390Z,0.80
2022-09-15T12:04:47.768Z,0.90
2022-09-15T12:09:02.225Z,1.02
2022-09-15T12:13:19.726Z,1.42
2022-09-15T12:17:40.454Z,0.93
2022-09-15T12:22:06.609Z,0.60
2022-09-15T12:26:20.762Z,1.00
2022-09-15T12:30:41.243Z,1.23
2022-09-15T12:35:03.742Z,1.15
2022-09-15T12:39:39.866Z,1.10
2022-09-15T12:44:01.212Z,1.13
2022-09-15T12:48:20.379Z,0.75
2022-09-15T12:52:41.653Z,0.75
2022-09-15T12:56:54.792Z,0.73
2022-09-15T13:01:18.801Z,1.33
2022-09-15T13:05:52.410Z,0.80
2022-09-15T13:10:12.856Z,0.93
2022-09-15T13:14:35.501Z,1.02
2022-09-15T13:18:47.454Z,0.80
2022-09-15T13:22:59.909Z,0.85
2022-09-15T13:27:13.301Z,0.57
2022-09-15T13:31:57.229Z,0.80
2022-09-15T13:41:34.108Z,0.75
2022-09-15T13:45:57.786Z,0.90
2022-09-15T13:50:35.330Z,0.65
2022-09-15T13:55:10.077Z,0.93
2022-09-15T13:59:27.197Z,0.95
2022-09-15T14:03:38.994Z,0.73
2022-09-15T14:07:59.191Z,0.70
2022-09-15T14:12:15.009Z,0.60
2022-09-15T14:16:26.523Z,0.60
2022-09-15T14:20:38.104Z,0.70
2022-09-15T14:24:51.138Z,0.75
2022-09-15T14:29:05.904Z,0.75
2022-09-15T14:33:18.014Z,0.77
2022-09-15T14:37:34.546Z,0.88
2022-09-15T14:41:47.227Z,0.60
2022-09-15T14:46:12.144Z,0.60
2022-09-15T14:50:23.730Z,1.05
2022-09-15T14:54:37.677Z,1.00
2022-09-15T14:59:03.366Z,1.10
2022-09-15T15:03:30.725Z,0.80
2022-09-15T15:07:43.455Z,0.65
2022-09-15T15:12:00.502Z,0.88
2022-09-15T15:16:49.761Z,0.77
2022-09-15T15:21:01.455Z,0.60
2022-09-15T15:25:28.290Z,0.55
2022-09-15T15:29:48.258Z,0.55
2022-09-15T15:34:05.466Z,0.70
2022-09-15T15:38:19.472Z,0.90
2022-09-15T15:42:31.101Z,0.90
2022-09-15T15:46:56.688Z,1.00
2022-09-15T15:51:09.373Z,0.93
2022-09-15T15:55:23.609Z,0.63
2022-09-15T15:59:35.170Z,0.82
2022-09-15T16:03:46.731Z,0.60
2022-09-15T16:08:03.865Z,0.70
2022-09-15T16:12:16.564Z,0.80
2022-09-15T16:16:29.277Z,1.00
2022-09-15T16:20:42.201Z,0.63
2022-09-15T16:24:55.126Z,0.90
2022-09-15T16:29:06.726Z,0.77
2022-09-15T16:33:18.874Z,0.77
2022-09-15T16:37:30.475Z,0.82
2022-09-15T16:41:42.180Z,0.80
2022-09-15T16:45:54.176Z,1.05
2022-09-15T16:50:05.869Z,0.70
2022-09-15T16:54:20.215Z,0.80
2022-09-15T16:58:31.981Z,0.50
2022-09-15T17:02:43.609Z,0.85
2022-09-15T17:06:55.219Z,0.80
2022-09-15T17:11:16.224Z,0.52
2022-09-15T17:15:37.676Z,0.30
2022-09-15T17:19:49.282Z,0.40
2022-09-15T17:24:00.910Z,0.50
2022-09-15T17:28:12.517Z,0.73
2022-09-15T17:32:24.064Z,0.70
2022-09-15T17:36:37.266Z,0.63
2022-09-15T17:40:50.022Z,1.35
2022-09-15T17:45:01.557Z,0.60
2022-09-15T17:49:13.450Z,0.60
2022-09-15T17:53:28.926Z,0.60
2022-09-15T17:57:40.676Z,0.93
2022-09-15T18:01:52.357Z,0.63
2022-09-15T18:06:08.705Z,0.68
2022-09-15T18:10:21.599Z,0.50
2022-09-15T18:14:33.627Z,0.60
2022-09-15T18:18:45.311Z,0.70
2022-09-15T18:22:57.211Z,0.68
2022-09-15T18:27:08.844Z,0.75
2022-09-15T18:31:20.495Z,0.60
2022-09-15T18:35:32.131Z,0.40
2022-09-15T18:39:43.786Z,0.60
2022-09-15T18:43:55.399Z,0.77
2022-09-15T18:48:12.015Z,1.00
2022-09-15T18:52:24.682Z,1.10
2022-09-15T18:56:36.289Z,0.60
2022-09-15T19:00:49.049Z,0.80
2022-09-15T19:05:00.785Z,0.82
2022-09-15T19:09:12.389Z,0.82
2022-09-15T19:13:24.042Z,0.65
2022-09-15T19:17:35.934Z,0.65
2022-09-15T19:21:47.496Z,0.55
2022-09-15T19:26:02.498Z,0.50
2022-09-15T19:30:14.452Z,0.52
2022-09-15T19:34:26.013Z,0.70
2022-09-15T19:38:38.193Z,0.50
2022-09-15T19:42:50.318Z,0.80
2022-09-15T19:47:01.982Z,0.50
2022-09-15T19:51:14.618Z,0.70
2022-09-15T19:55:26.984Z,0.60
2022-09-15T19:59:38.734Z,0.60
2022-09-15T20:03:53.411Z,0.75
2022-09-15T20:08:05.116Z,0.90
2022-09-15T20:12:16.821Z,0.60
2022-09-15T20:16:29.788Z,0.70
2022-09-15T20:20:41.431Z,0.73
2022-09-15T20:24:53.158Z,0.50
2022-09-15T20:29:05.345Z,3.60
2022-09-15T20:33:16.947Z,13.20
2022-09-15T20:37:28.594Z,6.10
2022-09-15T20:41:41.855Z,1.40
2022-09-15T20:45:57.335Z,1.30
2022-09-15T20:50:09.102Z,0.43
2022-09-15T20:54:20.802Z,0.90
2022-09-15T20:58:36.705Z,0.60
2022-09-15T21:02:51.939Z,0.70
2022-09-15T21:07:03.575Z,1.00
2022-09-15T21:11:16.734Z,0.50
2022-09-15T21:15:28.278Z,0.70
2022-09-15T21:19:40.240Z,0.88
2022-09-15T21:23:58.676Z,0.90
2022-09-15T21:28:10.215Z,0.73
2022-09-15T21:32:21.741Z,0.80
2022-09-15T21:36:33.940Z,0.80
2022-09-15T21:40:49.770Z,0.60
2022-09-15T21:45:01.737Z,1.10
2022-09-15T21:49:13.872Z,0.77
2022-09-15T21:53:26.318Z,0.75
2022-09-15T21:57:37.911Z,0.80
2022-09-15T22:01:49.670Z,0.55
2022-09-15T22:06:01.831Z,0.70
2022-09-15T22:10:13.435Z,0.82
2022-09-15T22:14:25.011Z,0.88
2022-09-15T22:18:38.368Z,0.80
2022-09-15T22:22:50.206Z,0.80
2022-09-15T22:27:01.734Z,0.70
2022-09-15T22:31:15.258Z,0.90
2022-09-15T22:35:27.423Z,0.90
2022-09-15T22:39:58.096Z,0.93
2022-09-15T22:44:18.689Z,0.68
2022-09-15T22:48:30.283Z,0.73
2022-09-15T22:52:41.836Z,0.98
2022-09-15T22:56:53.482Z,0.90
2022-09-15T23:01:06.339Z,0.90
2022-09-15T23:05:18.070Z,0.85
2022-09-15T23:09:29.649Z,1.00
2022-09-15T23:13:41.497Z,1.00
2022-09-15T23:17:53.098Z,1.00
2022-09-15T23:22:04.632Z,1.05
2022-09-15T23:26:18.549Z,0.90
2022-09-15T23:30:30.129Z,1.00
2022-09-15T23:34:41.692Z,1.00
2022-09-15T23:38:53.379Z,1.17
2022-09-15T23:43:04.960Z,0.80
2022-09-15T23:47:16.894Z,1.02
2022-09-15T23:51:28.413Z,1.23
2022-09-15T23:55:40.156Z,1.40
2022-09-15T23:59:52.278Z,0.93
